KEAU/EAU METAR and TAF weather

Enter ICAO airport designator
Station Type Date Time Source
KEAU METAR 2018/04/21 20:56 UTC NOAA

KEAU 212056Z 34007KT 10SM CLR 15/M02 A3034 RMK AO2 SLP281 T01501017 56014


Station Type Date Time Source
KEAU Decoded METAR 2018/04/21 20:56 UTC NOAA

EAU CLAIRE CHIPPEWA VALLEY, WI, United States (KEAU) 44-52N 091-29W
Apr 21, 2018 - 04:56 PM EDT / 2018.04.21 2056 UTC
Wind: from the NNW (340 degrees) at 8 MPH (7 KT):0
Visibility: 10 mile(s):0
Sky conditions: clear
Temperature: 59.0 F (15.0 C)
Dew Point: 28.9 F (-1.7 C)
Relative Humidity: 31%
Pressure (altimeter): 30.34 in. Hg (1027 hPa)
Pressure tendency: 0.04 inches (1.4 hPa) lower than three hours ago
ob: KEAU 212056Z 34007KT 10SM CLR 15/M02 A3034 RMK AO2 SLP281 T01501017 56014
cycle: 21

Station Type Date Time Source
KEAU TAF 2018/04/21 18:22 UTC NOAA

TAF KEAU 211720Z 2118/2218 19004KT P6SM SCT200
FM221000 VRB03KT 6SM BR SCT200
FM221500 13003KT P6SM SCT200


Example: see airport list